createdAt,value
2018-09-27T00:01:09.706Z,17.40
2018-09-27T00:03:38.781Z,17.40
2018-09-27T00:06:07.793Z,17.40
2018-09-27T00:08:36.878Z,17.40
2018-09-27T00:11:05.962Z,17.40
2018-09-27T00:13:35.080Z,17.40
2018-09-27T00:16:04.124Z,17.30
2018-09-27T00:18:33.002Z,17.30
2018-09-27T00:21:01.918Z,17.30
2018-09-27T00:23:30.809Z,17.20
2018-09-27T00:25:59.846Z,17.30
2018-09-27T00:28:28.798Z,17.30
2018-09-27T00:30:57.855Z,17.30
2018-09-27T00:33:26.805Z,17.30
2018-09-27T00:35:56.134Z,17.30
2018-09-27T00:38:25.153Z,17.20
2018-09-27T00:40:54.241Z,17.10
2018-09-27T00:43:23.394Z,17.10
2018-09-27T00:45:52.386Z,17.10
2018-09-27T00:48:21.297Z,17.20
2018-09-27T00:50:50.369Z,17.20
2018-09-27T00:53:19.291Z,17.20
2018-09-27T00:55:48.270Z,17.10
2018-09-27T00:58:17.449Z,17.10
2018-09-27T01:00:46.335Z,17.20
2018-09-27T01:03:15.487Z,17.20
2018-09-27T01:05:44.569Z,17.20
2018-09-27T01:08:13.561Z,17.20
2018-09-27T01:10:42.542Z,17.10
2018-09-27T01:13:11.580Z,17.10
2018-09-27T01:15:40.615Z,17.10
2018-09-27T01:18:09.654Z,17.10
2018-09-27T01:20:38.630Z,17.10
2018-09-27T01:23:07.799Z,17.10
2018-09-27T01:25:36.746Z,17.00
2018-09-27T01:28:06.053Z,17.00
2018-09-27T01:30:35.034Z,17.00
2018-09-27T01:33:04.098Z,17.00
2018-09-27T01:35:33.078Z,16.90
2018-09-27T01:38:02.178Z,16.90
2018-09-27T01:40:31.266Z,16.80
2018-09-27T01:43:00.236Z,16.90
2018-09-27T01:45:29.213Z,16.90
2018-09-27T01:47:58.287Z,16.90
2018-09-27T01:50:27.217Z,17.00
2018-09-27T01:52:56.284Z,17.00
2018-09-27T01:55:25.280Z,17.00
2018-09-27T01:57:54.241Z,16.90
2018-09-27T02:00:23.264Z,16.90
2018-09-27T02:02:58.669Z,16.90
2018-09-27T02:05:27.814Z,16.90
2018-09-27T02:07:56.811Z,16.80
2018-09-27T02:10:25.890Z,16.80
2018-09-27T02:12:54.831Z,16.80
2018-09-27T02:15:23.833Z,16.70
2018-09-27T02:17:52.818Z,16.70
2018-09-27T02:20:21.897Z,16.70
2018-09-27T02:22:50.845Z,16.80
2018-09-27T02:25:19.862Z,16.70
2018-09-27T02:27:48.861Z,16.70
2018-09-27T02:30:17.992Z,16.80
2018-09-27T02:32:46.955Z,16.70
2018-09-27T02:35:16.014Z,16.70
2018-09-27T02:37:44.993Z,16.70
2018-09-27T02:40:14.010Z,16.70
2018-09-27T02:42:42.996Z,16.60
2018-09-27T02:45:12.145Z,16.60
2018-09-27T02:47:41.318Z,16.60
2018-09-27T02:50:10.326Z,16.60
2018-09-27T02:52:39.425Z,16.70
2018-09-27T02:55:08.573Z,16.60
2018-09-27T02:57:37.554Z,16.70
2018-09-27T03:00:06.690Z,16.60
2018-09-27T03:02:35.698Z,16.60
2018-09-27T03:05:05.259Z,16.60
2018-09-27T03:07:34.299Z,16.60
2018-09-27T03:10:03.274Z,16.60
2018-09-27T03:12:32.425Z,16.50
2018-09-27T03:15:01.458Z,16.60
2018-09-27T03:17:36.773Z,16.60
2018-09-27T03:20:05.958Z,16.60
2018-09-27T03:22:34.933Z,16.60
2018-09-27T03:25:04.066Z,16.60
2018-09-27T03:27:33.121Z,16.50
2018-09-27T03:30:02.032Z,16.50
2018-09-27T03:35:05.429Z,16.50
2018-09-27T03:37:34.435Z,16.50
2018-09-27T03:40:03.351Z,16.50
2018-09-27T03:42:32.278Z,16.50
2018-09-27T03:45:01.533Z,16.40
2018-09-27T03:47:30.452Z,16.40
2018-09-27T03:49:59.418Z,16.50
2018-09-27T03:52:28.497Z,16.40
2018-09-27T03:54:57.781Z,16.40
2018-09-27T03:57:26.846Z,16.40
2018-09-27T03:59:55.885Z,16.40
2018-09-27T04:02:24.982Z,16.40
2018-09-27T04:04:54.021Z,16.40
2018-09-27T04:07:22.893Z,16.40
2018-09-27T04:09:51.914Z,16.30
2018-09-27T04:12:20.894Z,16.30
2018-09-27T04:14:49.898Z,16.30
2018-09-27T04:17:18.845Z,16.20
2018-09-27T04:19:47.725Z,16.30
2018-09-27T04:22:16.644Z,16.30
2018-09-27T04:24:45.632Z,16.30
2018-09-27T04:27:14.728Z,16.30
2018-09-27T04:29:43.759Z,16.20
2018-09-27T04:32:12.615Z,16.20
2018-09-27T04:34:41.650Z,16.20
2018-09-27T04:37:10.638Z,16.20
2018-09-27T04:39:39.663Z,16.20
2018-09-27T04:42:08.861Z,16.20
2018-09-27T04:44:37.854Z,16.20
2018-09-27T04:47:06.810Z,16.20
2018-09-27T04:49:35.932Z,16.10
2018-09-27T04:52:05.094Z,16.20
2018-09-27T04:54:34.251Z,16.10
2018-09-27T04:57:03.267Z,16.10
2018-09-27T04:59:32.387Z,16.10
2018-09-27T05:02:01.462Z,16.20
2018-09-27T05:04:30.715Z,16.10
2018-09-27T05:06:59.836Z,16.10
2018-09-27T05:09:29.276Z,16.10
2018-09-27T05:11:58.149Z,16.00
2018-09-27T05:14:27.231Z,16.00
2018-09-27T05:16:56.669Z,16.00
2018-09-27T05:19:25.960Z,16.10
2018-09-27T05:21:55.090Z,16.00
2018-09-27T05:24:24.237Z,16.00
2018-09-27T05:26:53.305Z,16.00
2018-09-27T05:29:22.523Z,16.00
2018-09-27T05:31:51.590Z,16.00
2018-09-27T05:34:20.674Z,16.00
2018-09-27T05:36:49.734Z,15.90
2018-09-27T05:39:18.853Z,15.90
2018-09-27T05:41:47.953Z,16.00
2018-09-27T05:44:17.068Z,15.50
2018-09-27T05:46:46.173Z,15.60
2018-09-27T05:49:15.210Z,14.70
2018-09-27T05:51:44.387Z,14.70
2018-09-27T05:54:13.541Z,14.40
2018-09-27T05:56:42.501Z,14.20
2018-09-27T05:59:11.713Z,14.70
2018-09-27T06:01:40.955Z,15.10
2018-09-27T06:04:10.061Z,15.50
2018-09-27T06:06:39.085Z,15.60
2018-09-27T06:09:10.750Z,15.70
2018-09-27T06:11:39.980Z,15.90
2018-09-27T06:14:09.086Z,16.20
2018-09-27T06:16:39.054Z,16.40
2018-09-27T06:19:08.867Z,16.30
2018-09-27T06:21:38.180Z,16.60
2018-09-27T06:24:07.322Z,16.90
2018-09-27T06:26:36.503Z,17.10
2018-09-27T06:29:05.684Z,17.40
2018-09-27T06:31:34.870Z,17.90
2018-09-27T06:34:04.177Z,18.30
2018-09-27T06:36:33.202Z,17.60
2018-09-27T06:39:02.410Z,16.70
2018-09-27T06:41:31.475Z,15.80
2018-09-27T06:44:00.537Z,15.20
2018-09-27T06:46:29.505Z,14.90
2018-09-27T06:48:58.753Z,15.20
2018-09-27T06:51:27.985Z,15.50
2018-09-27T06:53:57.066Z,15.90
2018-09-27T06:56:26.060Z,16.60
2018-09-27T06:58:55.153Z,16.60
2018-09-27T07:01:24.148Z,16.80
2018-09-27T07:03:53.166Z,16.30
2018-09-27T07:06:22.312Z,16.50
2018-09-27T07:08:51.338Z,17.50
2018-09-27T07:11:20.339Z,16.50
2018-09-27T07:13:49.554Z,16.10
2018-09-27T07:16:18.513Z,16.30
2018-09-27T07:18:47.622Z,17.00
2018-09-27T07:21:16.661Z,16.00
2018-09-27T07:23:45.669Z,16.10
2018-09-27T07:26:14.741Z,16.80
2018-09-27T07:28:44.056Z,16.40
2018-09-27T07:31:13.259Z,16.50
2018-09-27T07:33:42.303Z,17.60
2018-09-27T07:36:11.406Z,17.10
2018-09-27T07:38:40.896Z,17.40
2018-09-27T07:41:10.053Z,17.80
2018-09-27T07:43:39.083Z,18.20
2018-09-27T07:46:08.530Z,18.00
2018-09-27T07:48:38.831Z,17.90
2018-09-27T07:51:09.348Z,17.80
2018-09-27T07:53:40.124Z,17.60
2018-09-27T07:56:12.515Z,17.00
2018-09-27T07:58:43.216Z,17.60
2018-09-27T08:01:13.942Z,17.10
2018-09-27T08:03:44.658Z,17.20
2018-09-27T08:06:15.193Z,17.60
2018-09-27T08:08:45.479Z,17.30
2018-09-27T08:11:16.061Z,16.90
2018-09-27T08:13:45.903Z,17.30
2018-09-27T08:16:15.447Z,16.80
2018-09-27T08:18:44.507Z,17.70
2018-09-27T08:21:20.043Z,17.80
2018-09-27T08:23:49.028Z,18.00
2018-09-27T08:26:18.103Z,17.30
2018-09-27T08:28:47.074Z,18.10
2018-09-27T08:31:16.245Z,17.80
2018-09-27T08:33:45.314Z,18.00
2018-09-27T08:36:14.217Z,18.30
2018-09-27T08:38:43.326Z,18.40
2018-09-27T08:41:12.315Z,18.30
2018-09-27T08:43:41.381Z,17.90
2018-09-27T08:46:10.440Z,18.00
2018-09-27T08:48:39.589Z,18.70
2018-09-27T08:51:08.806Z,17.90
2018-09-27T08:53:37.874Z,18.80
2018-09-27T08:56:06.934Z,18.60
2018-09-27T08:58:35.997Z,18.30
2018-09-27T09:01:04.970Z,18.00
2018-09-27T09:03:34.229Z,18.30
2018-09-27T09:06:03.423Z,19.00
2018-09-27T09:08:32.558Z,19.20
2018-09-27T09:11:01.606Z,19.60
2018-09-27T09:13:30.670Z,19.40
2018-09-27T09:16:00.699Z,19.70
2018-09-27T09:18:29.500Z,20.10
2018-09-27T09:20:58.297Z,20.40
2018-09-27T09:23:27.078Z,20.10
2018-09-27T09:25:56.080Z,20.50
2018-09-27T09:28:25.210Z,19.60
2018-09-27T09:30:54.417Z,19.50
2018-09-27T09:33:23.775Z,19.90
2018-09-27T09:35:53.113Z,20.60
2018-09-27T09:38:22.415Z,20.70
2018-09-27T09:40:51.389Z,20.40
2018-09-27T09:43:20.406Z,20.40
2018-09-27T09:45:49.657Z,20.00
2018-09-27T09:48:18.867Z,20.60
2018-09-27T09:50:47.879Z,20.90
2018-09-27T09:53:16.862Z,20.60
2018-09-27T09:55:45.881Z,20.30
2018-09-27T09:58:14.858Z,20.40
2018-09-27T10:00:44.134Z,20.50
2018-09-27T10:03:13.241Z,20.50
2018-09-27T10:05:42.345Z,20.40
2018-09-27T10:08:11.655Z,20.80
2018-09-27T10:10:41.214Z,21.00
2018-09-27T10:13:10.418Z,20.90
2018-09-27T10:15:39.499Z,21.20
2018-09-27T10:18:08.767Z,21.00
2018-09-27T10:20:38.014Z,21.10
2018-09-27T10:23:06.977Z,21.20
2018-09-27T10:25:36.222Z,21.10
2018-09-27T10:28:05.385Z,21.50
2018-09-27T10:30:34.494Z,21.50
2018-09-27T10:33:03.611Z,21.90
2018-09-27T10:35:32.673Z,21.50
2018-09-27T10:38:01.828Z,22.00
2018-09-27T10:40:30.885Z,21.80
2018-09-27T10:42:59.907Z,21.70
2018-09-27T10:45:28.602Z,21.60
2018-09-27T10:47:57.351Z,21.90
2018-09-27T10:50:26.076Z,22.00
2018-09-27T10:52:56.064Z,21.60
2018-09-27T10:55:25.149Z,22.00
2018-09-27T10:57:54.201Z,22.10
2018-09-27T11:00:24.141Z,21.70
2018-09-27T11:02:53.586Z,21.30
2018-09-27T11:05:22.669Z,21.40
2018-09-27T11:07:51.706Z,22.20
2018-09-27T11:10:20.526Z,22.10
2018-09-27T11:12:49.564Z,21.80
2018-09-27T11:15:18.513Z,21.70
2018-09-27T11:17:47.753Z,21.80
2018-09-27T11:20:16.625Z,21.70
2018-09-27T11:22:45.588Z,21.70
2018-09-27T11:25:14.849Z,21.60
2018-09-27T11:27:43.940Z,21.60
2018-09-27T11:30:18.206Z,21.20
2018-09-27T11:32:47.210Z,21.40
2018-09-27T11:35:16.182Z,21.30
2018-09-27T11:37:45.184Z,21.40
2018-09-27T11:40:14.313Z,21.50
2018-09-27T11:42:43.373Z,21.30
2018-09-27T11:45:12.418Z,21.80
2018-09-27T11:47:41.555Z,22.10
2018-09-27T11:50:10.577Z,21.90
2018-09-27T11:52:39.707Z,21.70
2018-09-27T11:55:08.965Z,21.50
2018-09-27T11:57:38.078Z,21.40
2018-09-27T12:00:07.938Z,21.70
2018-09-27T12:02:37.170Z,21.40
2018-09-27T12:05:06.334Z,21.70
2018-09-27T12:07:35.325Z,21.90
2018-09-27T12:10:04.242Z,21.80
2018-09-27T12:12:32.929Z,21.90
2018-09-27T12:15:01.650Z,21.90
2018-09-27T12:17:30.437Z,22.00
2018-09-27T12:19:59.174Z,22.00
2018-09-27T12:22:27.889Z,22.50
2018-09-27T12:24:56.625Z,22.20
2018-09-27T12:27:25.593Z,22.00
2018-09-27T12:29:54.538Z,22.10
2018-09-27T12:32:23.513Z,22.00
2018-09-27T12:34:52.444Z,21.70
2018-09-27T12:37:21.322Z,21.70
2018-09-27T12:39:50.409Z,21.70
2018-09-27T12:42:19.406Z,21.90
2018-09-27T12:44:48.447Z,22.00
2018-09-27T12:47:17.370Z,22.00
2018-09-27T12:49:46.249Z,22.10
2018-09-27T12:52:15.541Z,22.20
2018-09-27T12:54:44.581Z,22.40
2018-09-27T12:57:13.512Z,22.30
2018-09-27T12:59:42.469Z,22.20
2018-09-27T13:02:11.583Z,22.60
2018-09-27T13:04:40.981Z,22.60
2018-09-27T13:07:09.933Z,22.40
2018-09-27T13:09:39.002Z,22.40
2018-09-27T13:12:08.285Z,22.70
2018-09-27T13:14:37.219Z,22.60
2018-09-27T13:17:06.210Z,22.50
2018-09-27T13:19:35.320Z,22.70
2018-09-27T13:22:04.166Z,22.80
2018-09-27T13:24:33.034Z,23.00
2018-09-27T13:27:02.013Z,22.70
2018-09-27T13:29:30.847Z,23.00
2018-09-27T13:32:00.072Z,22.50
2018-09-27T13:34:28.982Z,22.50
2018-09-27T13:36:58.131Z,22.60
2018-09-27T13:39:27.041Z,22.80
2018-09-27T13:41:56.102Z,22.70
2018-09-27T13:44:25.020Z,22.60
2018-09-27T13:46:53.763Z,22.90
2018-09-27T13:49:22.773Z,23.00
2018-09-27T13:51:51.525Z,23.00
2018-09-27T13:54:20.217Z,22.50
2018-09-27T13:56:49.209Z,22.60
2018-09-27T13:59:18.171Z,22.80
2018-09-27T14:01:47.310Z,22.70
2018-09-27T14:04:16.269Z,22.70
2018-09-27T14:06:45.202Z,23.00
2018-09-27T14:09:14.291Z,23.00
2018-09-27T14:11:43.238Z,22.70
2018-09-27T14:14:12.163Z,22.60
2018-09-27T14:16:41.250Z,22.40
2018-09-27T14:19:10.250Z,22.70
2018-09-27T14:21:39.110Z,22.80
2018-09-27T14:24:08.255Z,22.70
2018-09-27T14:26:37.215Z,22.90
2018-09-27T14:29:06.222Z,22.80
2018-09-27T14:31:35.203Z,22.60
2018-09-27T14:34:04.244Z,22.40
2018-09-27T14:36:33.206Z,22.30
2018-09-27T14:39:02.256Z,22.30
2018-09-27T14:41:31.159Z,22.60
2018-09-27T14:44:00.265Z,22.60
2018-09-27T14:46:29.198Z,22.70
2018-09-27T14:48:58.128Z,22.80
2018-09-27T14:51:27.250Z,22.60
2018-09-27T14:53:56.178Z,22.50
2018-09-27T14:56:25.154Z,22.40
2018-09-27T14:58:54.227Z,22.50
2018-09-27T15:01:23.168Z,22.50
2018-09-27T15:03:52.119Z,22.60
2018-09-27T15:06:21.089Z,22.20
2018-09-27T15:08:50.214Z,22.40
2018-09-27T15:11:19.343Z,22.50
2018-09-27T15:13:48.067Z,22.40
2018-09-27T15:16:16.932Z,22.30
2018-09-27T15:18:45.628Z,22.20
2018-09-27T15:21:14.365Z,22.10
2018-09-27T15:23:43.091Z,22.20
2018-09-27T15:26:12.070Z,22.30
2018-09-27T15:28:41.091Z,22.20
2018-09-27T15:31:10.102Z,22.10
2018-09-27T15:33:39.098Z,22.10
2018-09-27T15:36:08.133Z,22.00
2018-09-27T15:38:37.226Z,22.10
2018-09-27T15:41:06.135Z,21.90
2018-09-27T15:43:35.129Z,21.90
2018-09-27T15:46:04.156Z,21.90
2018-09-27T15:48:33.134Z,21.80
2018-09-27T15:51:02.174Z,21.60
2018-09-27T15:53:31.046Z,21.60
2018-09-27T15:56:00.075Z,21.60
2018-09-27T15:58:29.174Z,21.50
2018-09-27T16:00:58.056Z,21.50
2018-09-27T16:03:26.894Z,21.30
2018-09-27T16:05:56.026Z,21.40
2018-09-27T16:08:25.154Z,21.50
2018-09-27T16:10:54.126Z,21.50
2018-09-27T16:13:23.049Z,21.50
2018-09-27T16:15:52.038Z,21.60
2018-09-27T16:18:20.914Z,21.40
2018-09-27T16:20:49.886Z,21.60
2018-09-27T16:23:18.926Z,21.60
2018-09-27T16:25:47.907Z,21.60
2018-09-27T16:28:17.210Z,21.50
2018-09-27T16:30:46.206Z,21.50
2018-09-27T16:33:15.182Z,21.50
2018-09-27T16:35:44.349Z,21.60
2018-09-27T16:38:13.292Z,21.60
2018-09-27T16:40:42.449Z,21.40
2018-09-27T16:43:11.339Z,21.30
2018-09-27T16:45:41.021Z,21.20
2018-09-27T16:48:09.772Z,21.30
2018-09-27T16:50:38.526Z,21.30
2018-09-27T16:53:07.490Z,21.30
2018-09-27T16:55:36.629Z,21.30
2018-09-27T16:58:05.608Z,21.20
2018-09-27T17:00:34.479Z,21.20
2018-09-27T17:03:03.417Z,21.20
2018-09-27T17:05:32.552Z,21.10
2018-09-27T17:08:01.629Z,21.10
2018-09-27T17:10:30.583Z,21.00
2018-09-27T17:12:59.660Z,20.90
2018-09-27T17:15:28.642Z,20.90
2018-09-27T17:17:57.847Z,20.80
2018-09-27T17:20:26.898Z,20.80
2018-09-27T17:22:55.858Z,20.70
2018-09-27T17:25:24.890Z,20.60
2018-09-27T17:27:53.866Z,20.60
2018-09-27T17:30:22.798Z,20.50
2018-09-27T17:32:51.766Z,20.40
2018-09-27T17:35:20.775Z,20.40
2018-09-27T17:37:49.776Z,20.30
2018-09-27T17:40:19.207Z,20.20
2018-09-27T17:42:48.314Z,20.20
2018-09-27T17:45:17.346Z,20.10
2018-09-27T17:47:46.517Z,20.00
2018-09-27T17:50:15.549Z,20.00
2018-09-27T17:52:44.591Z,19.70
2018-09-27T17:55:14.042Z,19.80
2018-09-27T17:57:43.129Z,19.80
2018-09-27T18:00:12.419Z,19.80
2018-09-27T18:02:41.362Z,19.70
2018-09-27T18:05:18.983Z,19.60
2018-09-27T18:07:39.932Z,19.60
2018-09-27T18:10:08.910Z,19.50
2018-09-27T18:12:37.718Z,19.50
2018-09-27T18:15:06.623Z,19.50
2018-09-27T18:17:35.570Z,19.50
2018-09-27T18:20:04.713Z,19.30
2018-09-27T18:22:33.481Z,19.30
2018-09-27T18:25:02.634Z,19.30
2018-09-27T18:27:31.861Z,19.30
2018-09-27T18:30:01.160Z,19.10
2018-09-27T18:32:30.247Z,19.10
2018-09-27T18:34:59.161Z,19.10
2018-09-27T18:37:28.540Z,19.10
2018-09-27T18:39:57.477Z,19.00
2018-09-27T18:42:26.508Z,18.80
2018-09-27T18:44:55.482Z,18.80
2018-09-27T18:47:24.610Z,18.90
2018-09-27T18:50:00.407Z,19.00
2018-09-27T18:52:29.433Z,19.00
2018-09-27T18:54:58.713Z,18.80
2018-09-27T18:57:27.986Z,19.00
2018-09-27T18:59:57.201Z,19.10
2018-09-27T19:02:26.478Z,19.20
2018-09-27T19:04:55.513Z,19.30
2018-09-27T19:07:24.541Z,19.30
2018-09-27T19:09:53.714Z,19.30
2018-09-27T19:12:22.629Z,19.30
2018-09-27T19:14:51.533Z,19.40
2018-09-27T19:17:20.500Z,19.40
2018-09-27T19:19:49.373Z,19.40
2018-09-27T19:22:18.384Z,19.50
2018-09-27T19:24:47.380Z,19.40
2018-09-27T19:27:16.405Z,19.40
2018-09-27T19:29:45.445Z,19.50
2018-09-27T19:32:14.529Z,19.50
2018-09-27T19:34:43.906Z,19.50
2018-09-27T19:37:12.830Z,19.50
2018-09-27T19:39:41.692Z,19.50
2018-09-27T19:42:10.631Z,19.50
2018-09-27T19:44:39.590Z,19.50
2018-09-27T19:47:08.626Z,19.50
2018-09-27T19:49:37.586Z,19.50
2018-09-27T19:52:07.032Z,19.50
2018-09-27T19:54:36.229Z,19.50
2018-09-27T19:57:05.254Z,19.40
2018-09-27T19:59:34.229Z,19.50
2018-09-27T20:02:03.289Z,19.40
2018-09-27T20:04:32.448Z,19.50
2018-09-27T20:07:01.278Z,19.50
2018-09-27T20:09:30.242Z,19.50
2018-09-27T20:11:59.278Z,19.50
2018-09-27T20:14:28.294Z,19.40
2018-09-27T20:16:57.329Z,19.40
2018-09-27T20:19:26.310Z,19.40
2018-09-27T20:21:55.292Z,19.50
2018-09-27T20:24:24.350Z,19.50
2018-09-27T20:26:53.401Z,19.50
2018-09-27T20:29:22.341Z,19.40
2018-09-27T20:31:51.309Z,19.40
2018-09-27T20:34:20.402Z,19.40
2018-09-27T20:36:49.552Z,19.50
2018-09-27T20:39:18.567Z,19.40
2018-09-27T20:41:47.542Z,19.40
2018-09-27T20:44:16.625Z,19.30
2018-09-27T20:46:45.962Z,19.30
2018-09-27T20:49:15.209Z,18.90
2018-09-27T20:51:44.186Z,19.10
2018-09-27T20:54:13.374Z,19.20
2018-09-27T20:56:42.509Z,19.30
2018-09-27T20:59:11.515Z,19.20
2018-09-27T21:01:40.498Z,19.20
2018-09-27T21:04:09.430Z,19.20
2018-09-27T21:06:39.137Z,19.20
2018-09-27T21:09:10.985Z,19.20
2018-09-27T21:11:40.359Z,19.20
2018-09-27T21:14:09.718Z,19.20
2018-09-27T21:16:39.082Z,19.20
2018-09-27T21:19:08.078Z,19.20
2018-09-27T21:21:36.997Z,19.20
2018-09-27T21:24:05.734Z,19.10
2018-09-27T21:26:34.787Z,19.10
2018-09-27T21:29:03.669Z,19.10
2018-09-27T21:31:32.822Z,19.10
2018-09-27T21:34:01.801Z,19.10
2018-09-27T21:36:30.783Z,19.10
2018-09-27T21:38:59.914Z,19.10
2018-09-27T21:41:28.871Z,19.00
2018-09-27T21:43:58.023Z,19.00
2018-09-27T21:46:26.778Z,19.00
2018-09-27T21:48:55.717Z,19.00
2018-09-27T21:51:24.537Z,18.90
2018-09-27T21:53:53.518Z,18.90
2018-09-27T21:56:22.505Z,18.90
2018-09-27T21:58:51.454Z,18.80
2018-09-27T22:01:20.550Z,18.80
2018-09-27T22:03:49.534Z,18.90
2018-09-27T22:06:18.580Z,18.90
2018-09-27T22:08:47.534Z,18.80
2018-09-27T22:11:16.594Z,18.80
2018-09-27T22:13:45.569Z,18.80
2018-09-27T22:16:14.485Z,18.80
2018-09-27T22:18:43.433Z,18.80
2018-09-27T22:21:12.426Z,18.80
2018-09-27T22:23:41.401Z,18.70
2018-09-27T22:26:10.701Z,18.70
2018-09-27T22:28:39.678Z,18.70
2018-09-27T22:31:08.715Z,18.70
2018-09-27T22:33:37.597Z,18.70
2018-09-27T22:36:06.521Z,18.60
2018-09-27T22:38:35.502Z,18.60
2018-09-27T22:41:04.450Z,18.60
2018-09-27T22:43:33.505Z,18.60
2018-09-27T22:46:02.248Z,18.40
2018-09-27T22:48:31.010Z,18.40
2018-09-27T22:51:00.014Z,18.50
2018-09-27T22:53:29.023Z,18.60
2018-09-27T22:55:57.894Z,18.50
2018-09-27T22:58:26.786Z,18.60
2018-09-27T23:00:55.797Z,18.50
2018-09-27T23:03:25.034Z,18.50
2018-09-27T23:05:54.030Z,18.50
2018-09-27T23:08:23.016Z,18.50
2018-09-27T23:10:51.901Z,18.50
2018-09-27T23:13:20.998Z,18.40
2018-09-27T23:15:50.093Z,18.40
2018-09-27T23:18:19.043Z,18.40
2018-09-27T23:20:48.014Z,18.40
2018-09-27T23:23:17.093Z,18.40
2018-09-27T23:25:46.273Z,18.30
2018-09-27T23:28:15.520Z,18.30
2018-09-27T23:30:44.533Z,18.30
2018-09-27T23:33:13.749Z,18.30
2018-09-27T23:35:42.829Z,18.30
2018-09-27T23:38:11.881Z,18.30
2018-09-27T23:40:40.886Z,18.20
2018-09-27T23:43:09.834Z,18.20
2018-09-27T23:45:38.822Z,18.20
2018-09-27T23:48:07.758Z,18.20
2018-09-27T23:50:36.685Z,18.10
2018-09-27T23:53:05.774Z,18.10
2018-09-27T23:55:34.758Z,18.10
2018-09-27T23:58:03.717Z,17.70
